首页
METAR-TAF:

METAR-TAF

机场 :

蒂米什瓦拉, 罗马尼亚

纬度: 45-46N, 经度: 021-15E, 海拔: 86米

当前天气观测

该预报发布于35分钟前的04:00 UTC
风速8节,风向南转南东
温度 18°C
湿度 56%
气压 1003 hPa
能见度10公里或以上
1500米以下无云,无积雨云

METAR: LRTR 050400Z 15008KT CAVOK 18/09 Q1003 NOSIG

时间: 07:35 (04:35 UTC)

预报

该预报发布于5小时和35分钟前的23:00 UTC
预报有效从05日的 00点(UTC)到 06日的 00点(UTC)
风速10节,风向
能见度10公里或以上
1500米以下无云,无积雨云
几率 40% :
短暂存在
从 05日的 00点(UTC)到 05日的 04点(UTC)
能見度: 5000
散云层高于4000英尺, 积雨云.
小阵雨
成为
从 05日的 06点(UTC)到 05日的 08点(UTC)
风速20节,风向
短暂存在
从 05日的 09点(UTC)到 05日的 18点(UTC)
风速20节,风向,有时为35节阵风
散云层高于4000英尺, 积雨云.
几率 40% :
短暂存在
从 05日的 12点(UTC)到 05日的 18点(UTC)
能見度: 5000
雷暴, 小雨

TAF: LRTR 042300Z 0500/0600 17010KT CAVOK PROB40 TEMPO 0500/0504 5000 -SHRA SCT040CB BECMG 0506/0508 19020KT TEMPO 0509/0518 19020G35KT SCT040CB PROB40 TEMPO 0512/0518 5000 -TSRA

超过4000个机场的气象观测和天气预报(METAR&TAF报告)。

可查询的气象台以黄色和红色小点在地图上表示。

将鼠标移到小点上方,可查看气象台名称。

然后点击查看天气观测和预报。

如需切换地图:点击带黑十字的绿色按钮放大地图;点击带横线的绿色按钮缩小地图;或者点击绿色箭头查看邻近地区的地图。


METAR-TAF: